sensor_id;sensor_type;location;lat;lon;timestamp;pressure;altitude;pressure_sealevel;temperature;humidity
60725;BME280;59881;36.722;-4.462;2022-09-12T00:02:09;100765.28;;;24.13;63.58
60725;BME280;59881;36.722;-4.462;2022-09-12T00:04:34;100780.94;;;24.10;63.77
60725;BME280;59881;36.722;-4.462;2022-09-12T00:06:59;100780.47;;;24.06;64.01
60725;BME280;59881;36.722;-4.462;2022-09-12T00:09:25;100731.59;;;24.03;64.10
60725;BME280;59881;36.722;-4.462;2022-09-12T00:11:50;100695.81;;;24.02;64.21
60725;BME280;59881;36.722;-4.462;2022-09-12T00:14:16;100664.53;;;24.01;64.46
60725;BME280;59881;36.722;-4.462;2022-09-12T00:16:42;100623.16;;;24.02;64.47
60725;BME280;59881;36.722;-4.462;2022-09-12T00:19:08;100596.25;;;24.02;64.49
60725;BME280;59881;36.722;-4.462;2022-09-12T00:21:34;100591.88;;;24.01;64.67
60725;BME280;59881;36.722;-4.462;2022-09-12T00:24:00;100589.56;;;23.98;64.61
60725;BME280;59881;36.722;-4.462;2022-09-12T00:26:25;100599.69;;;23.96;65.17
60725;BME280;59881;36.722;-4.462;2022-09-12T00:28:50;100629.47;;;23.94;65.25
60725;BME280;59881;36.722;-4.462;2022-09-12T00:31:18;100646.84;;;23.92;65.13
60725;BME280;59881;36.722;-4.462;2022-09-12T00:33:44;100642.66;;;23.89;65.11
60725;BME280;59881;36.722;-4.462;2022-09-12T00:36:13;100627.53;;;23.88;65.08
60725;BME280;59881;36.722;-4.462;2022-09-12T00:38:39;100618.47;;;23.89;65.08
60725;BME280;59881;36.722;-4.462;2022-09-12T00:41:19;100605.84;;;23.90;64.95
60725;BME280;59881;36.722;-4.462;2022-09-12T00:43:45;100590.50;;;23.90;65.00
60725;BME280;59881;36.722;-4.462;2022-09-12T00:48:45;100576.06;;;23.91;64.67
60725;BME280;59881;36.722;-4.462;2022-09-12T00:51:13;100570.88;;;23.90;64.71
60725;BME280;59881;36.722;-4.462;2022-09-12T00:53:40;100583.91;;;23.93;64.69
60725;BME280;59881;36.722;-4.462;2022-09-12T00:56:07;100574.00;;;23.93;64.46
60725;BME280;59881;36.722;-4.462;2022-09-12T00:58:38;100578.53;;;23.93;64.09
60725;BME280;59881;36.722;-4.462;2022-09-12T01:01:04;100580.84;;;23.96;64.36
60725;BME280;59881;36.722;-4.462;2022-09-12T01:03:29;100569.88;;;23.98;64.13
60725;BME280;59881;36.722;-4.462;2022-09-12T01:06:00;100579.63;;;23.99;64.32
60725;BME280;59881;36.722;-4.462;2022-09-12T01:08:27;100586.66;;;24.00;64.48
60725;BME280;59881;36.722;-4.462;2022-09-12T01:10:52;100596.78;;;23.98;65.16
60725;BME280;59881;36.722;-4.462;2022-09-12T01:13:18;100627.81;;;23.93;65.93
60725;BME280;59881;36.722;-4.462;2022-09-12T01:15:44;100641.81;;;23.89;66.48
60725;BME280;59881;36.722;-4.462;2022-09-12T01:30:45;100608.06;;;23.50;69.92
60725;BME280;59881;36.722;-4.462;2022-09-12T01:48:40;100612.88;;;23.54;70.29
60725;BME280;59881;36.722;-4.462;2022-09-12T01:53:42;100611.81;;;23.55;69.80
60725;BME280;59881;36.722;-4.462;2022-09-12T01:56:27;100589.50;;;23.55;69.30
60725;BME280;59881;36.722;-4.462;2022-09-12T01:58:58;100589.88;;;23.52;68.94
60725;BME280;59881;36.722;-4.462;2022-09-12T02:01:27;100582.81;;;23.51;68.60
60725;BME280;59881;36.722;-4.462;2022-09-12T02:04:04;100571.06;;;23.52;68.14
60725;BME280;59881;36.722;-4.462;2022-09-12T02:06:40;100555.19;;;23.57;66.91
60725;BME280;59881;36.722;-4.462;2022-09-12T02:09:10;100547.38;;;23.62;65.78
60725;BME280;59881;36.722;-4.462;2022-09-12T02:11:37;100551.56;;;23.65;65.08
60725;BME280;59881;36.722;-4.462;2022-09-12T02:14:09;100574.91;;;23.64;65.11
60725;BME280;59881;36.722;-4.462;2022-09-12T02:16:36;100580.09;;;23.66;65.43
60725;BME280;59881;36.722;-4.462;2022-09-12T02:19:12;100567.88;;;23.63;65.90
60725;BME280;59881;36.722;-4.462;2022-09-12T02:21:40;100582.53;;;23.61;66.06
60725;BME280;59881;36.722;-4.462;2022-09-12T02:24:08;100577.72;;;23.56;66.48
60725;BME280;59881;36.722;-4.462;2022-09-12T02:26:36;100556.78;;;23.51;67.08
60725;BME280;59881;36.722;-4.462;2022-09-12T02:29:06;100560.06;;;23.47;67.34
60725;BME280;59881;36.722;-4.462;2022-09-12T02:31:44;100551.13;;;23.46;67.94
60725;BME280;59881;36.722;-4.462;2022-09-12T02:36:51;100545.50;;;23.41;69.08
60725;BME280;59881;36.722;-4.462;2022-09-12T02:39:19;100548.00;;;23.43;69.56
60725;BME280;59881;36.722;-4.462;2022-09-12T02:41:51;100517.78;;;23.41;69.86
60725;BME280;59881;36.722;-4.462;2022-09-12T02:44:17;100510.09;;;23.38;70.70
60725;BME280;59881;36.722;-4.462;2022-09-12T02:46:43;100501.97;;;23.31;70.99
60725;BME280;59881;36.722;-4.462;2022-09-12T02:49:10;100507.91;;;23.26;71.31
60725;BME280;59881;36.722;-4.462;2022-09-12T02:51:36;100517.00;;;23.25;71.90
60725;BME280;59881;36.722;-4.462;2022-09-12T02:54:02;100514.69;;;23.22;72.64
60725;BME280;59881;36.722;-4.462;2022-09-12T02:56:28;100523.94;;;23.20;72.93
60725;BME280;59881;36.722;-4.462;2022-09-12T02:58:54;100526.00;;;23.18;73.16
60725;BME280;59881;36.722;-4.462;2022-09-12T03:01:45;100519.78;;;23.17;73.34
60725;BME280;59881;36.722;-4.462;2022-09-12T03:09:44;100519.31;;;23.13;74.54
60725;BME280;59881;36.722;-4.462;2022-09-12T03:19:47;100499.44;;;23.08;78.02
60725;BME280;59881;36.722;-4.462;2022-09-12T03:24:45;100492.94;;;23.02;79.41
60725;BME280;59881;36.722;-4.462;2022-09-12T03:27:14;100482.56;;;22.99;81.49
60725;BME280;59881;36.722;-4.462;2022-09-12T03:29:41;100474.88;;;22.96;83.95
60725;BME280;59881;36.722;-4.462;2022-09-12T03:32:07;100462.03;;;22.91;85.56
60725;BME280;59881;36.722;-4.462;2022-09-12T03:34:33;100467.94;;;22.87;87.01
60725;BME280;59881;36.722;-4.462;2022-09-12T03:36:58;100465.00;;;22.82;89.01
60725;BME280;59881;36.722;-4.462;2022-09-12T03:39:23;100472.78;;;22.77;89.71
60725;BME280;59881;36.722;-4.462;2022-09-12T03:41:50;100459.72;;;22.73;90.51
60725;BME280;59881;36.722;-4.462;2022-09-12T03:44:16;100448.72;;;22.68;90.89
60725;BME280;59881;36.722;-4.462;2022-09-12T03:46:41;100438.53;;;22.64;91.85
60725;BME280;59881;36.722;-4.462;2022-09-12T03:49:07;100432.03;;;22.58;92.64
60725;BME280;59881;36.722;-4.462;2022-09-12T03:51:32;100445.22;;;22.53;93.23
60725;BME280;59881;36.722;-4.462;2022-09-12T03:53:57;100443.09;;;22.48;93.48
60725;BME280;59881;36.722;-4.462;2022-09-12T03:56:23;100435.19;;;22.47;93.80
60725;BME280;59881;36.722;-4.462;2022-09-12T03:58:48;100435.19;;;22.47;94.09
60725;BME280;59881;36.722;-4.462;2022-09-12T04:01:17;100435.84;;;22.49;94.29
60725;BME280;59881;36.722;-4.462;2022-09-12T04:03:43;100431.13;;;22.51;94.22
60725;BME280;59881;36.722;-4.462;2022-09-12T04:06:10;100432.81;;;22.52;94.17
60725;BME280;59881;36.722;-4.462;2022-09-12T04:08:36;100419.19;;;22.53;94.09
60725;BME280;59881;36.722;-4.462;2022-09-12T04:11:02;100415.50;;;22.55;93.66
60725;BME280;59881;36.722;-4.462;2022-09-12T04:13:28;100406.78;;;22.52;93.37
60725;BME280;59881;36.722;-4.462;2022-09-12T04:15:57;100421.22;;;22.51;93.26
60725;BME280;59881;36.722;-4.462;2022-09-12T04:18:22;100422.44;;;22.49;93.12
60725;BME280;59881;36.722;-4.462;2022-09-12T04:20:48;100417.91;;;22.49;93.29
60725;BME280;59881;36.722;-4.462;2022-09-12T04:23:13;100408.00;;;22.50;93.39
60725;BME280;59881;36.722;-4.462;2022-09-12T04:25:38;100408.84;;;22.50;93.45
60725;BME280;59881;36.722;-4.462;2022-09-12T04:28:04;100395.59;;;22.49;93.55
60725;BME280;59881;36.722;-4.462;2022-09-12T04:30:29;100391.25;;;22.48;93.52
60725;BME280;59881;36.722;-4.462;2022-09-12T04:32:54;100389.56;;;22.47;93.56
60725;BME280;59881;36.722;-4.462;2022-09-12T04:35:20;100400.53;;;22.45;93.68
60725;BME280;59881;36.722;-4.462;2022-09-12T04:37:45;100406.53;;;22.47;93.99
60725;BME280;59881;36.722;-4.462;2022-09-12T04:40:10;100400.78;;;22.50;94.45
60725;BME280;59881;36.722;-4.462;2022-09-12T04:42:36;100407.81;;;22.51;94.38
60725;BME280;59881;36.722;-4.462;2022-09-12T04:45:02;100416.06;;;22.50;94.34
60725;BME280;59881;36.722;-4.462;2022-09-12T04:47:27;100404.50;;;22.49;94.31
60725;BME280;59881;36.722;-4.462;2022-09-12T04:49:53;100404.69;;;22.48;94.41
60725;BME280;59881;36.722;-4.462;2022-09-12T04:52:18;100404.22;;;22.44;94.06
60725;BME280;59881;36.722;-4.462;2022-09-12T04:54:43;100398.56;;;22.39;94.08
60725;BME280;59881;36.722;-4.462;2022-09-12T04:57:09;100392.38;;;22.39;94.53
60725;BME280;59881;36.722;-4.462;2022-09-12T04:59:34;100389.69;;;22.39;95.00
60725;BME280;59881;36.722;-4.462;2022-09-12T05:02:00;100380.78;;;22.38;95.14
60725;BME280;59881;36.722;-4.462;2022-09-12T05:04:25;100368.41;;;22.37;95.47
60725;BME280;59881;36.722;-4.462;2022-09-12T05:06:51;100363.22;;;22.36;95.86
60725;BME280;59881;36.722;-4.462;2022-09-12T05:09:16;100361.75;;;22.33;95.91
60725;BME280;59881;36.722;-4.462;2022-09-12T05:11:42;100348.72;;;22.30;95.95
60725;BME280;59881;36.722;-4.462;2022-09-12T05:14:08;100347.41;;;22.26;95.78
60725;BME280;59881;36.722;-4.462;2022-09-12T05:16:34;100350.47;;;22.23;96.02
60725;BME280;59881;36.722;-4.462;2022-09-12T05:18:59;100342.59;;;22.21;96.14
60725;BME280;59881;36.722;-4.462;2022-09-12T05:21:25;100341.28;;;22.17;95.74
60725;BME280;59881;36.722;-4.462;2022-09-12T05:23:51;100340.81;;;22.14;95.85
60725;BME280;59881;36.722;-4.462;2022-09-12T05:26:16;100350.91;;;22.11;95.64
60725;BME280;59881;36.722;-4.462;2022-09-12T05:28:43;100350.25;;;22.09;95.88
60725;BME280;59881;36.722;-4.462;2022-09-12T05:31:12;100345.91;;;22.08;96.16
60725;BME280;59881;36.722;-4.462;2022-09-12T05:33:38;100343.41;;;22.07;96.16
60725;BME280;59881;36.722;-4.462;2022-09-12T05:36:04;100349.97;;;22.04;95.71
60725;BME280;59881;36.722;-4.462;2022-09-12T05:38:30;100352.84;;;22.03;95.46
60725;BME280;59881;36.722;-4.462;2022-09-12T05:41:02;100360.06;;;22.02;95.22
60725;BME280;59881;36.722;-4.462;2022-09-12T05:43:28;100360.44;;;21.99;94.63
60725;BME280;59881;36.722;-4.462;2022-09-12T05:46:04;100361.44;;;21.98;93.49
60725;BME280;59881;36.722;-4.462;2022-09-12T05:48:33;100348.69;;;22.00;92.18
60725;BME280;59881;36.722;-4.462;2022-09-12T05:51:05;100350.81;;;22.05;90.85
60725;BME280;59881;36.722;-4.462;2022-09-12T05:53:34;100355.81;;;22.08;89.90
60725;BME280;59881;36.722;-4.462;2022-09-12T05:56:03;100353.78;;;22.10;88.80
60725;BME280;59881;36.722;-4.462;2022-09-12T05:58:29;100355.25;;;22.13;88.56
60725;BME280;59881;36.722;-4.462;2022-09-12T06:00:54;100354.88;;;22.16;87.93
60725;BME280;59881;36.722;-4.462;2022-09-12T06:03:21;100345.63;;;22.18;87.56
60725;BME280;59881;36.722;-4.462;2022-09-12T06:05:46;99859.53;;;19.15;86.79
60725;BME280;59881;36.722;-4.462;2022-09-12T06:08:12;100350.28;;;22.24;86.92
60725;BME280;59881;36.722;-4.462;2022-09-12T06:10:37;100342.53;;;22.29;86.76
60725;BME280;59881;36.722;-4.462;2022-09-12T06:13:02;100346.13;;;22.37;86.42
60725;BME280;59881;36.722;-4.462;2022-09-12T06:15:28;100348.50;;;22.46;86.29
60725;BME280;59881;36.722;-4.462;2022-09-12T06:17:53;100346.13;;;22.58;86.01
60725;BME280;59881;36.722;-4.462;2022-09-12T06:20:19;100339.28;;;22.70;85.41
60725;BME280;59881;36.722;-4.462;2022-09-12T06:22:44;100343.94;;;22.83;84.69
60725;BME280;59881;36.722;-4.462;2022-09-12T06:25:10;100343.06;;;22.98;83.59
60725;BME280;59881;36.722;-4.462;2022-09-12T06:27:35;100350.25;;;23.12;81.98
60725;BME280;59881;36.722;-4.462;2022-09-12T06:30:00;100361.06;;;23.40;80.37
60725;BME280;59881;36.722;-4.462;2022-09-12T06:32:28;100354.34;;;23.79;77.89
60725;BME280;59881;36.722;-4.462;2022-09-12T06:34:53;100360.97;;;24.11;75.28
60725;BME280;59881;36.722;-4.462;2022-09-12T06:37:19;100350.50;;;24.36;73.06
60725;BME280;59881;36.722;-4.462;2022-09-12T06:39:44;100343.03;;;24.93;70.72
60725;BME280;59881;36.722;-4.462;2022-09-12T06:42:10;100335.19;;;25.72;67.54
60725;BME280;59881;36.722;-4.462;2022-09-12T06:44:37;100326.31;;;26.30;64.73
60725;BME280;59881;36.722;-4.462;2022-09-12T06:47:03;100331.81;;;26.93;61.96
60725;BME280;59881;36.722;-4.462;2022-09-12T06:49:29;100325.97;;;27.72;58.85
60725;BME280;59881;36.722;-4.462;2022-09-12T06:51:55;100318.25;;;28.49;55.99
60725;BME280;59881;36.722;-4.462;2022-09-12T06:54:21;100305.38;;;28.75;53.61
60725;BME280;59881;36.722;-4.462;2022-09-12T06:56:47;100290.28;;;29.33;52.37
60725;BME280;59881;36.722;-4.462;2022-09-12T06:59:12;100299.59;;;29.84;50.24
60725;BME280;59881;36.722;-4.462;2022-09-12T07:01:38;100309.31;;;30.32;48.51
60725;BME280;59881;36.722;-4.462;2022-09-12T07:04:05;100304.50;;;30.51;48.06
60725;BME280;59881;36.722;-4.462;2022-09-12T07:06:34;100302.03;;;30.95;46.62
60725;BME280;59881;36.722;-4.462;2022-09-12T07:09:00;100299.22;;;31.24;44.90
60725;BME280;59881;36.722;-4.462;2022-09-12T07:11:27;100287.75;;;31.55;44.16
60725;BME280;59881;36.722;-4.462;2022-09-12T07:13:54;100294.66;;;32.02;43.29
60725;BME280;59881;36.722;-4.462;2022-09-12T07:16:20;100295.00;;;32.87;42.68
60725;BME280;59881;36.722;-4.462;2022-09-12T07:18:53;100287.25;;;33.81;40.37
60725;BME280;59881;36.722;-4.462;2022-09-12T07:21:19;100281.84;;;34.01;38.68
60725;BME280;59881;36.722;-4.462;2022-09-12T07:23:44;100265.84;;;34.41;38.99
60725;BME280;59881;36.722;-4.462;2022-09-12T07:26:10;100279.19;;;34.22;37.81
60725;BME280;59881;36.722;-4.462;2022-09-12T07:28:36;100279.81;;;34.55;38.12
60725;BME280;59881;36.722;-4.462;2022-09-12T07:31:05;100278.69;;;35.53;36.32
60725;BME280;59881;36.722;-4.462;2022-09-12T07:33:31;100297.69;;;36.04;34.77
60725;BME280;59881;36.722;-4.462;2022-09-12T07:36:03;100287.13;;;36.37;34.88
60725;BME280;59881;36.722;-4.462;2022-09-12T07:38:29;100281.69;;;37.11;33.41
60725;BME280;59881;36.722;-4.462;2022-09-12T07:40:55;100285.03;;;36.69;32.83
60725;BME280;59881;36.722;-4.462;2022-09-12T07:43:21;100264.16;;;37.02;33.42
60725;BME280;59881;36.722;-4.462;2022-09-12T07:45:46;100267.47;;;36.70;32.68
60725;BME280;59881;36.722;-4.462;2022-09-12T07:48:11;100273.72;;;37.10;33.37
60725;BME280;59881;36.722;-4.462;2022-09-12T07:50:37;100273.78;;;37.28;31.57
60725;BME280;59881;36.722;-4.462;2022-09-12T07:53:03;100283.38;;;38.08;31.82
60725;BME280;59881;36.722;-4.462;2022-09-12T07:55:29;100291.31;;;39.32;30.82
60725;BME280;59881;36.722;-4.462;2022-09-12T07:57:54;100305.59;;;40.18;28.66
60725;BME280;59881;36.722;-4.462;2022-09-12T08:00:19;100297.16;;;40.95;28.28
60725;BME280;59881;36.722;-4.462;2022-09-12T08:02:49;100295.59;;;41.66;28.19
60725;BME280;59881;36.722;-4.462;2022-09-12T08:05:14;100292.34;;;41.72;25.01
60725;BME280;59881;36.722;-4.462;2022-09-12T08:07:40;100286.63;;;41.29;25.80
60725;BME280;59881;36.722;-4.462;2022-09-12T08:10:05;100299.59;;;42.00;26.45
60725;BME280;59881;36.722;-4.462;2022-09-12T08:12:31;100303.25;;;42.44;25.67
60725;BME280;59881;36.722;-4.462;2022-09-12T08:14:56;100292.47;;;42.77;24.75
60725;BME280;59881;36.722;-4.462;2022-09-12T08:17:22;100292.44;;;43.03;24.68
60725;BME280;59881;36.722;-4.462;2022-09-12T08:19:47;100290.13;;;43.23;24.71
60725;BME280;59881;36.722;-4.462;2022-09-12T08:22:12;100295.97;;;43.59;24.20
60725;BME280;59881;36.722;-4.462;2022-09-12T08:24:38;100303.47;;;43.20;22.72
60725;BME280;59881;36.722;-4.462;2022-09-12T08:27:04;100310.56;;;42.57;22.71
60725;BME280;59881;36.722;-4.462;2022-09-12T08:29:29;100305.25;;;41.86;24.04
60725;BME280;59881;36.722;-4.462;2022-09-12T08:31:54;100311.72;;;41.72;23.79
60725;BME280;59881;36.722;-4.462;2022-09-12T08:34:20;100310.56;;;41.11;24.41
60725;BME280;59881;36.722;-4.462;2022-09-12T08:36:45;100313.63;;;40.78;24.70
60725;BME280;59881;36.722;-4.462;2022-09-12T08:39:11;100324.50;;;40.74;25.21
60725;BME280;59881;36.722;-4.462;2022-09-12T08:41:39;100338.72;;;41.13;24.25
60725;BME280;59881;36.722;-4.462;2022-09-12T08:46:33;100344.66;;;38.52;27.38
60725;BME280;59881;36.722;-4.462;2022-09-12T08:49:01;100362.00;;;35.27;32.47
60725;BME280;59881;36.722;-4.462;2022-09-12T08:51:27;100345.41;;;33.07;36.05
60725;BME280;59881;36.722;-4.462;2022-09-12T08:53:55;100313.81;;;31.90;38.33
60725;BME280;59881;36.722;-4.462;2022-09-12T08:56:21;100319.44;;;31.28;40.30
60725;BME280;59881;36.722;-4.462;2022-09-12T08:58:47;100312.72;;;30.85;42.52
60725;BME280;59881;36.722;-4.462;2022-09-12T09:07:00;100292.09;;;34.47;37.07
60725;BME280;59881;36.722;-4.462;2022-09-12T09:11:59;100326.06;;;33.93;38.38
60725;BME280;59881;36.722;-4.462;2022-09-12T09:17:19;100360.03;;;33.60;39.39
60725;BME280;59881;36.722;-4.462;2022-09-12T09:19:48;100357.41;;;32.78;40.98
60725;BME280;59881;36.722;-4.462;2022-09-12T09:22:20;100348.91;;;33.02;40.83
60725;BME280;59881;36.722;-4.462;2022-09-12T09:24:52;100355.50;;;33.06;40.71
60725;BME280;59881;36.722;-4.462;2022-09-12T09:27:27;100350.53;;;33.03;40.73
60725;BME280;59881;36.722;-4.462;2022-09-12T09:29:54;100360.19;;;33.11;40.23
60725;BME280;59881;36.722;-4.462;2022-09-12T09:32:27;100351.28;;;34.06;38.72
60725;BME280;59881;36.722;-4.462;2022-09-12T09:34:54;100351.63;;;36.30;34.71
60725;BME280;59881;36.722;-4.462;2022-09-12T09:45:13;100344.06;;;40.50;28.67
60725;BME280;59881;36.722;-4.462;2022-09-12T09:47:41;100363.81;;;39.61;29.57
60725;BME280;59881;36.722;-4.462;2022-09-12T09:50:08;100368.03;;;40.13;29.26
60725;BME280;59881;36.722;-4.462;2022-09-12T09:52:34;100353.19;;;40.87;28.30
60725;BME280;59881;36.722;-4.462;2022-09-12T09:55:00;100357.94;;;40.95;28.79
60725;BME280;59881;36.722;-4.462;2022-09-12T10:02:59;100371.78;;;43.16;26.26
60725;BME280;59881;36.722;-4.462;2022-09-12T10:05:25;100404.56;;;40.61;29.68
60725;BME280;59881;36.722;-4.462;2022-09-12T10:07:52;100389.34;;;38.44;33.77
60725;BME280;59881;36.722;-4.462;2022-09-12T10:10:18;100385.34;;;38.55;33.58
60725;BME280;59881;36.722;-4.462;2022-09-12T10:12:43;100399.03;;;37.64;35.19
60725;BME280;59881;36.722;-4.462;2022-09-12T10:15:19;100391.25;;;35.88;38.71
60725;BME280;59881;36.722;-4.462;2022-09-12T10:17:46;100372.94;;;33.70;43.12
60725;BME280;59881;36.722;-4.462;2022-09-12T10:22:54;100397.34;;;31.00;50.07
60725;BME280;59881;36.722;-4.462;2022-09-12T10:25:19;100406.75;;;30.40;51.99
60725;BME280;59881;36.722;-4.462;2022-09-12T10:27:52;100398.50;;;30.11;53.84
60725;BME280;59881;36.722;-4.462;2022-09-12T10:30:18;100391.88;;;30.19;54.26
60725;BME280;59881;36.722;-4.462;2022-09-12T10:32:47;100398.03;;;31.24;52.76
60725;BME280;59881;36.722;-4.462;2022-09-12T10:35:16;100394.47;;;33.29;48.02
60725;BME280;59881;36.722;-4.462;2022-09-12T10:37:49;100376.34;;;34.60;44.23
60725;BME280;59881;36.722;-4.462;2022-09-12T10:40:23;100391.19;;;34.07;45.32
60725;BME280;59881;36.722;-4.462;2022-09-12T10:47:47;100386.91;;;32.15;49.07
60725;BME280;59881;36.722;-4.462;2022-09-12T10:50:22;100383.59;;;31.41;51.10
60725;BME280;59881;36.722;-4.462;2022-09-12T10:52:48;100388.84;;;31.30;51.57
60725;BME280;59881;36.722;-4.462;2022-09-12T10:55:13;100387.56;;;31.33;51.68
60725;BME280;59881;36.722;-4.462;2022-09-12T11:00:14;100374.25;;;31.03;52.37
60725;BME280;59881;36.722;-4.462;2022-09-12T11:08:02;100360.03;;;29.79;55.29
60725;BME280;59881;36.722;-4.462;2022-09-12T11:18:12;100357.94;;;30.45;53.22
60725;BME280;59881;36.722;-4.462;2022-09-12T11:33:41;100347.59;;;29.24;57.42
60725;BME280;59881;36.722;-4.462;2022-09-12T11:36:11;100343.84;;;28.95;58.54
60725;BME280;59881;36.722;-4.462;2022-09-12T11:41:07;100331.78;;;29.09;58.34
60725;BME280;59881;36.722;-4.462;2022-09-12T11:46:18;100343.38;;;29.52;56.80
60725;BME280;59881;36.722;-4.462;2022-09-12T11:48:56;100319.78;;;29.41;56.64
60725;BME280;59881;36.722;-4.462;2022-09-12T11:51:30;100320.72;;;29.35;56.85
60725;BME280;59881;36.722;-4.462;2022-09-12T11:54:08;100302.25;;;28.89;57.88
60725;BME280;59881;36.722;-4.462;2022-09-12T11:56:37;100296.44;;;28.86;57.75
60725;BME280;59881;36.722;-4.462;2022-09-12T12:01:51;100287.81;;;29.31;56.31
60725;BME280;59881;36.722;-4.462;2022-09-12T12:04:19;100302.69;;;29.40;56.16
60725;BME280;59881;36.722;-4.462;2022-09-12T12:06:54;100320.84;;;29.16;56.71
60725;BME280;59881;36.722;-4.462;2022-09-12T12:09:21;100317.22;;;29.04;57.10
60725;BME280;59881;36.722;-4.462;2022-09-12T12:11:48;100315.13;;;29.06;56.72
60725;BME280;59881;36.722;-4.462;2022-09-12T12:14:17;100308.97;;;28.99;56.90
60725;BME280;59881;36.722;-4.462;2022-09-12T12:16:44;100297.22;;;29.05;56.71
60725;BME280;59881;36.722;-4.462;2022-09-12T12:21:42;100283.31;;;28.71;56.61
60725;BME280;59881;36.722;-4.462;2022-09-12T12:31:46;100244.06;;;28.62;55.46
60725;BME280;59881;36.722;-4.462;2022-09-12T12:34:20;100236.16;;;28.60;54.88
60725;BME280;59881;36.722;-4.462;2022-09-12T12:36:46;100229.47;;;28.63;54.18
60725;BME280;59881;36.722;-4.462;2022-09-12T12:41:58;100245.16;;;28.73;52.85
60725;BME280;59881;36.722;-4.462;2022-09-12T12:47:10;100290.81;;;28.87;53.01
60725;BME280;59881;36.722;-4.462;2022-09-12T12:49:38;100297.63;;;29.20;52.64
60725;BME280;59881;36.722;-4.462;2022-09-12T12:52:03;100258.69;;;29.15;51.89
60725;BME280;59881;36.722;-4.462;2022-09-12T12:57:04;100295.31;;;29.05;52.11
60725;BME280;59881;36.722;-4.462;2022-09-12T13:00:24;100317.31;;;29.39;51.89
60725;BME280;59881;36.722;-4.462;2022-09-12T13:04:56;100326.75;;;30.24;49.78
60725;BME280;59881;36.722;-4.462;2022-09-12T13:07:28;100324.59;;;30.50;48.23
60725;BME280;59881;36.722;-4.462;2022-09-12T13:09:54;100327.59;;;30.37;48.15
60725;BME280;59881;36.722;-4.462;2022-09-12T13:12:24;100330.34;;;30.13;48.63
60725;BME280;59881;36.722;-4.462;2022-09-12T13:14:57;100327.19;;;30.04;49.16
60725;BME280;59881;36.722;-4.462;2022-09-12T13:17:33;100315.56;;;30.32;48.13
60725;BME280;59881;36.722;-4.462;2022-09-12T13:20:03;100313.59;;;30.16;47.11
60725;BME280;59881;36.722;-4.462;2022-09-12T13:22:37;100312.03;;;30.20;47.62
60725;BME280;59881;36.722;-4.462;2022-09-12T13:25:16;100327.25;;;30.33;47.35
60725;BME280;59881;36.722;-4.462;2022-09-12T13:27:46;100352.28;;;30.47;47.26
60725;BME280;59881;36.722;-4.462;2022-09-12T13:30:20;100334.28;;;30.46;46.36
60725;BME280;59881;36.722;-4.462;2022-09-12T13:32:45;100334.00;;;30.59;46.78
60725;BME280;59881;36.722;-4.462;2022-09-12T13:40:32;100318.94;;;30.97;45.71
60725;BME280;59881;36.722;-4.462;2022-09-12T13:43:15;100334.34;;;30.91;45.87
60725;BME280;59881;36.722;-4.462;2022-09-12T13:45:42;100345.13;;;30.86;46.00
60725;BME280;59881;36.722;-4.462;2022-09-12T13:48:12;100333.25;;;30.64;45.87
60725;BME280;59881;36.722;-4.462;2022-09-12T13:50:39;100340.53;;;30.46;46.60
60725;BME280;59881;36.722;-4.462;2022-09-12T13:53:11;100349.91;;;30.39;46.56
60725;BME280;59881;36.722;-4.462;2022-09-12T13:55:39;100349.91;;;30.39;45.99
60725;BME280;59881;36.722;-4.462;2022-09-12T13:58:12;100328.69;;;30.36;46.73
60725;BME280;59881;36.722;-4.462;2022-09-12T14:00:39;100326.44;;;30.21;47.23
60725;BME280;59881;36.722;-4.462;2022-09-12T14:03:13;100327.34;;;30.26;47.18
60725;BME280;59881;36.722;-4.462;2022-09-12T14:06:03;99858.53;;;27.43;47.15
60725;BME280;59881;36.722;-4.462;2022-09-12T14:08:30;100337.00;;;30.46;46.78
60725;BME280;59881;36.722;-4.462;2022-09-12T14:10:55;100343.84;;;30.48;46.06
60725;BME280;59881;36.722;-4.462;2022-09-12T14:13:27;100339.84;;;30.51;45.67
60725;BME280;59881;36.722;-4.462;2022-09-12T14:15:56;100340.31;;;30.48;45.00
60725;BME280;59881;36.722;-4.462;2022-09-12T14:18:26;100323.91;;;30.43;45.21
60725;BME280;59881;36.722;-4.462;2022-09-12T14:20:52;100311.22;;;30.31;45.79
60725;BME280;59881;36.722;-4.462;2022-09-12T14:23:30;100293.03;;;30.20;46.31
60725;BME280;59881;36.722;-4.462;2022-09-12T14:25:57;100277.91;;;29.72;47.49
60725;BME280;59881;36.722;-4.462;2022-09-12T14:28:24;100262.22;;;29.27;48.41
60725;BME280;59881;36.722;-4.462;2022-09-12T14:33:23;100248.72;;;28.85;50.26
60725;BME280;59881;36.722;-4.462;2022-09-12T14:36:06;100254.50;;;28.88;50.05
60725;BME280;59881;36.722;-4.462;2022-09-12T14:38:36;100258.13;;;28.82;50.21
60725;BME280;59881;36.722;-4.462;2022-09-12T14:41:05;100246.91;;;28.67;50.48
60725;BME280;59881;36.722;-4.462;2022-09-12T14:43:36;100266.56;;;28.62;50.96
60725;BME280;59881;36.722;-4.462;2022-09-12T14:46:04;100271.16;;;28.62;51.07
60725;BME280;59881;36.722;-4.462;2022-09-12T14:48:31;100270.47;;;28.66;51.08
60725;BME280;59881;36.722;-4.462;2022-09-12T14:50:58;100257.63;;;28.62;51.39
60725;BME280;59881;36.722;-4.462;2022-09-12T14:53:31;100252.56;;;28.35;52.22
60725;BME280;59881;36.722;-4.462;2022-09-12T14:58:29;100204.88;;;28.04;53.41
60725;BME280;59881;36.722;-4.462;2022-09-12T15:00:56;100213.22;;;28.02;53.51
60725;BME280;59881;36.722;-4.462;2022-09-12T15:03:23;100202.84;;;27.99;54.06
60725;BME280;59881;36.722;-4.462;2022-09-12T15:05:49;100224.72;;;27.98;53.93
60725;BME280;59881;36.722;-4.462;2022-09-12T15:08:14;100230.75;;;28.00;53.96
60725;BME280;59881;36.722;-4.462;2022-09-12T15:10:40;100214.25;;;27.83;54.43
60725;BME280;59881;36.722;-4.462;2022-09-12T15:15:36;100214.34;;;27.39;55.90
60725;BME280;59881;36.722;-4.462;2022-09-12T15:18:02;100213.69;;;27.26;56.33
60725;BME280;59881;36.722;-4.462;2022-09-12T15:20:27;100240.75;;;27.19;56.32